createdAt,value
2023-07-29T00:00:27.004Z,46.72
2023-07-29T00:01:26.919Z,46.73
2023-07-29T00:02:27.911Z,46.73
2023-07-29T00:03:26.960Z,46.73
2023-07-29T00:04:26.883Z,46.73
2023-07-29T00:05:26.926Z,46.74
2023-07-29T00:06:26.872Z,46.75
2023-07-29T00:07:27.816Z,46.74
2023-07-29T00:08:26.800Z,46.74
2023-07-29T00:09:26.792Z,46.75
2023-07-29T00:10:26.908Z,46.74
2023-07-29T00:11:26.804Z,46.75
2023-07-29T00:12:27.748Z,46.77
2023-07-29T00:13:26.750Z,46.78
2023-07-29T00:14:26.748Z,46.80
2023-07-29T00:15:26.732Z,46.81
2023-07-29T00:16:26.789Z,46.83
2023-07-29T00:17:26.733Z,46.85
2023-07-29T00:18:27.664Z,46.86
2023-07-29T00:19:26.676Z,46.88
2023-07-29T00:20:26.693Z,46.91
2023-07-29T00:21:26.651Z,46.92
2023-07-29T00:22:26.693Z,46.94
2023-07-29T00:26:19.558Z,46.65
2023-07-29T00:27:19.520Z,47.41
2023-07-29T00:28:22.256Z,47.46
2023-07-29T00:29:19.525Z,47.47
2023-07-29T00:30:20.511Z,47.44
2023-07-29T00:31:19.516Z,47.40
2023-07-29T00:32:19.442Z,47.36
2023-07-29T00:33:19.553Z,47.31
2023-07-29T00:34:19.409Z,47.29
2023-07-29T00:35:19.362Z,47.24
2023-07-29T00:36:19.395Z,47.23
2023-07-29T00:37:19.348Z,47.19
2023-07-29T00:38:19.351Z,47.18
2023-07-29T00:39:19.323Z,47.16
2023-07-29T00:40:19.439Z,47.14
2023-07-29T00:41:20.276Z,47.12
2023-07-29T00:42:19.291Z,47.09
2023-07-29T00:43:19.337Z,47.07
2023-07-29T00:44:19.272Z,47.07
2023-07-29T00:45:19.257Z,47.07
2023-07-29T00:46:20.351Z,47.11
2023-07-29T00:47:19.237Z,47.11
2023-07-29T00:48:19.328Z,47.13
2023-07-29T00:49:19.206Z,47.14
2023-07-29T00:50:19.228Z,47.15
2023-07-29T00:51:19.182Z,47.15
2023-07-29T00:52:20.138Z,47.15
2023-07-29T00:53:19.190Z,47.17
2023-07-29T00:54:19.177Z,47.16
2023-07-29T00:55:19.143Z,47.15
2023-07-29T00:56:19.211Z,47.13
2023-07-29T00:57:19.505Z,47.15
2023-07-29T00:58:25.342Z,47.15
2023-07-29T00:59:19.094Z,47.15
2023-07-29T01:00:19.071Z,47.14
2023-07-29T01:01:19.086Z,47.15
2023-07-29T01:02:19.117Z,47.13
2023-07-29T01:03:19.161Z,47.13
2023-07-29T01:04:20.089Z,47.12
2023-07-29T01:05:19.031Z,47.10
2023-07-29T01:06:19.028Z,47.10
2023-07-29T01:07:19.197Z,47.09
2023-07-29T01:08:18.988Z,47.09
2023-07-29T01:09:19.913Z,47.08
2023-07-29T01:10:19.154Z,47.08
2023-07-29T01:11:18.941Z,47.08
2023-07-29T01:12:18.943Z,47.07
2023-07-29T01:13:18.940Z,47.08
2023-07-29T01:14:18.884Z,47.08
2023-07-29T01:15:20.809Z,47.07
2023-07-29T01:16:18.953Z,47.06
2023-07-29T01:17:18.817Z,47.05
2023-07-29T01:18:18.867Z,47.05
2023-07-29T01:19:18.812Z,47.03
2023-07-29T01:20:19.732Z,47.06
2023-07-29T01:21:18.838Z,47.07
2023-07-29T01:22:18.771Z,47.07
2023-07-29T01:23:18.878Z,47.06
2023-07-29T01:24:18.749Z,47.07
2023-07-29T01:25:19.748Z,47.09
2023-07-29T01:26:18.747Z,47.09
2023-07-29T01:27:18.702Z,47.09
2023-07-29T01:28:18.802Z,47.09
2023-07-29T01:29:18.706Z,47.07
2023-07-29T01:30:19.663Z,47.10
2023-07-29T01:31:18.709Z,47.08
2023-07-29T01:32:18.647Z,47.06
2023-07-29T01:33:18.617Z,47.05
2023-07-29T01:34:18.670Z,47.06
2023-07-29T01:35:18.615Z,47.06
2023-07-29T01:36:19.549Z,47.06
2023-07-29T01:37:18.585Z,47.05
2023-07-29T01:38:18.843Z,47.05
2023-07-29T01:39:18.540Z,47.04
2023-07-29T01:40:18.550Z,47.06
2023-07-29T01:41:18.641Z,47.06
2023-07-29T01:42:19.453Z,47.09
2023-07-29T01:43:18.563Z,47.11
2023-07-29T01:44:18.500Z,47.13
2023-07-29T01:45:18.445Z,47.17
2023-07-29T01:46:18.508Z,47.19
2023-07-29T01:47:18.495Z,47.22
2023-07-29T01:48:19.402Z,47.22
2023-07-29T01:49:18.444Z,47.23
2023-07-29T01:50:18.425Z,47.24
2023-07-29T01:51:18.396Z,47.23
2023-07-29T01:52:18.460Z,47.23
2023-07-29T01:53:18.361Z,47.23
2023-07-29T01:54:19.301Z,47.23
2023-07-29T01:55:18.469Z,47.23
2023-07-29T01:56:18.318Z,47.23
2023-07-29T01:57:18.323Z,47.20
2023-07-29T01:58:18.333Z,47.20
2023-07-29T01:59:19.225Z,47.20
2023-07-29T02:00:18.314Z,47.20
2023-07-29T02:01:18.378Z,47.20
2023-07-29T02:02:18.303Z,47.19
2023-07-29T02:03:18.308Z,47.17
2023-07-29T02:04:19.194Z,47.18
2023-07-29T02:05:18.287Z,47.16
2023-07-29T02:06:18.239Z,47.17
2023-07-29T02:07:18.208Z,47.18
2023-07-29T02:08:18.285Z,47.18
2023-07-29T02:09:18.290Z,47.17
2023-07-29T02:10:19.086Z,47.18
2023-07-29T02:11:18.152Z,47.18
2023-07-29T02:12:18.146Z,47.18
2023-07-29T02:13:18.104Z,47.18
2023-07-29T02:14:18.162Z,47.18
2023-07-29T02:15:18.108Z,47.17
2023-07-29T02:16:24.397Z,47.18
2023-07-29T02:17:18.081Z,47.17
2023-07-29T02:18:18.076Z,47.18
2023-07-29T02:19:18.077Z,47.19
2023-07-29T02:20:18.036Z,47.19
2023-07-29T02:21:18.011Z,47.21
2023-07-29T02:22:24.300Z,47.21
2023-07-29T02:23:18.063Z,47.21
2023-07-29T02:24:17.966Z,47.21
2023-07-29T02:25:18.043Z,47.21
2023-07-29T02:26:18.035Z,47.22
2023-07-29T02:27:24.227Z,47.23
2023-07-29T02:28:17.993Z,47.22
2023-07-29T02:29:17.935Z,47.23
2023-07-29T02:30:17.901Z,47.24
2023-07-29T02:31:18.232Z,47.23
2023-07-29T02:32:17.883Z,47.24
2023-07-29T02:33:24.292Z,47.25
2023-07-29T02:34:17.839Z,47.24
2023-07-29T02:35:17.839Z,47.25
2023-07-29T02:36:17.906Z,47.26
2023-07-29T02:37:17.836Z,47.27
2023-07-29T02:38:18.833Z,47.25
2023-07-29T02:39:17.782Z,47.26
2023-07-29T02:40:17.828Z,47.25
2023-07-29T02:41:17.861Z,47.26
2023-07-29T02:42:17.790Z,47.27
2023-07-29T02:43:17.821Z,47.27
2023-07-29T02:44:18.688Z,47.27
2023-07-29T02:45:17.693Z,47.27
2023-07-29T02:46:17.694Z,47.29
2023-07-29T02:47:17.712Z,47.29
2023-07-29T02:48:17.659Z,47.30
2023-07-29T02:49:17.738Z,47.31
2023-07-29T02:50:18.581Z,47.31
2023-07-29T02:51:17.640Z,47.29
2023-07-29T02:52:17.618Z,47.30
2023-07-29T02:53:18.314Z,47.30
2023-07-29T02:54:17.732Z,47.30
2023-07-29T02:55:18.613Z,47.31
2023-07-29T02:56:17.554Z,47.32
2023-07-29T02:57:17.534Z,47.31
2023-07-29T02:58:17.646Z,47.32
2023-07-29T02:59:17.530Z,47.32
2023-07-29T03:00:17.524Z,47.33
2023-07-29T03:01:18.522Z,47.33
2023-07-29T03:02:17.568Z,47.35
2023-07-29T03:03:17.635Z,47.37
2023-07-29T03:04:17.482Z,47.35
2023-07-29T03:05:17.476Z,47.36
2023-07-29T03:06:18.462Z,47.38
2023-07-29T03:07:17.448Z,47.36
2023-07-29T03:08:17.423Z,47.38
2023-07-29T03:09:17.562Z,47.37
2023-07-29T03:10:17.377Z,47.39
2023-07-29T03:11:18.304Z,47.38
2023-07-29T03:12:17.422Z,47.39
2023-07-29T03:13:17.373Z,47.39
2023-07-29T03:14:17.325Z,47.38
2023-07-29T03:15:17.341Z,47.36
2023-07-29T03:16:17.351Z,47.35
2023-07-29T03:17:18.249Z,47.33
2023-07-29T03:18:17.325Z,47.32
2023-07-29T03:19:17.286Z,47.31
2023-07-29T03:20:17.264Z,47.29
2023-07-29T03:21:17.238Z,47.27
2023-07-29T03:22:18.128Z,47.26
2023-07-29T03:23:17.216Z,47.27
2023-07-29T03:24:17.192Z,47.26
2023-07-29T03:25:17.178Z,47.26
2023-07-29T03:26:17.173Z,47.26
2023-07-29T03:27:17.161Z,47.26
2023-07-29T03:28:18.144Z,47.27
2023-07-29T03:29:17.138Z,47.26
2023-07-29T03:30:17.111Z,47.27
2023-07-29T03:31:17.228Z,47.27
2023-07-29T03:32:17.186Z,47.27
2023-07-29T03:33:17.079Z,47.28
2023-07-29T03:34:18.030Z,47.30
2023-07-29T03:35:17.071Z,47.28
2023-07-29T03:36:17.068Z,47.30
2023-07-29T03:37:17.053Z,47.31
2023-07-29T03:38:17.025Z,47.32
2023-07-29T03:39:16.990Z,47.34
2023-07-29T03:40:17.974Z,47.35
2023-07-29T03:41:17.108Z,47.35
2023-07-29T03:42:17.020Z,47.34
2023-07-29T03:43:16.996Z,47.33
2023-07-29T03:44:16.934Z,47.33
2023-07-29T03:45:17.880Z,47.33
2023-07-29T03:46:16.932Z,47.34
2023-07-29T03:47:16.926Z,47.31
2023-07-29T03:48:16.900Z,47.31
2023-07-29T03:49:16.899Z,47.33
2023-07-29T03:50:16.914Z,47.34
2023-07-29T03:51:17.771Z,47.31
2023-07-29T03:52:16.826Z,47.32
2023-07-29T03:53:16.823Z,47.31
2023-07-29T03:54:16.798Z,47.31
2023-07-29T03:55:16.797Z,47.31
2023-07-29T03:56:17.708Z,47.29
2023-07-29T03:57:16.771Z,47.30
2023-07-29T03:58:16.763Z,47.28
2023-07-29T03:59:16.759Z,47.28
2023-07-29T04:00:16.778Z,47.28
2023-07-29T04:01:17.736Z,47.28
2023-07-29T04:02:16.751Z,47.28
2023-07-29T04:03:16.672Z,47.28
2023-07-29T04:04:16.829Z,47.29
2023-07-29T04:05:16.779Z,47.28
2023-07-29T04:06:17.973Z,47.28
2023-07-29T04:07:16.716Z,47.28
2023-07-29T04:08:16.680Z,47.27
2023-07-29T04:09:16.662Z,47.27
2023-07-29T04:10:16.684Z,47.25
2023-07-29T04:11:17.699Z,47.23
2023-07-29T04:12:16.601Z,47.23
2023-07-29T04:13:16.598Z,47.23
2023-07-29T04:14:16.618Z,47.22
2023-07-29T04:15:16.534Z,47.20
2023-07-29T04:16:16.558Z,47.18
2023-07-29T04:17:17.444Z,47.15
2023-07-29T04:18:16.530Z,47.11
2023-07-29T04:19:16.907Z,47.10
2023-07-29T04:20:16.473Z,47.05
2023-07-29T04:21:16.503Z,47.02
2023-07-29T04:22:16.530Z,46.99
2023-07-29T04:23:18.077Z,46.97
2023-07-29T04:24:16.403Z,46.93
2023-07-29T04:25:16.470Z,46.91
2023-07-29T04:26:16.397Z,46.89
2023-07-29T04:27:16.410Z,46.85
2023-07-29T04:28:16.450Z,46.83
2023-07-29T04:29:17.349Z,46.80
2023-07-29T04:30:16.421Z,46.79
2023-07-29T04:31:16.376Z,46.77
2023-07-29T04:32:16.340Z,46.76
2023-07-29T04:33:16.326Z,46.76
2023-07-29T04:34:16.307Z,46.76
2023-07-29T04:35:17.256Z,46.77
2023-07-29T04:36:16.237Z,46.76
2023-07-29T04:37:16.333Z,46.77
2023-07-29T04:38:16.241Z,46.80
2023-07-29T04:39:16.248Z,46.81
2023-07-29T04:40:16.203Z,46.81
2023-07-29T04:41:17.187Z,46.83
2023-07-29T04:42:16.168Z,46.85
2023-07-29T04:43:16.166Z,46.84
2023-07-29T04:44:16.227Z,46.84
2023-07-29T04:45:16.242Z,46.81
2023-07-29T04:46:17.184Z,46.81
2023-07-29T04:47:16.135Z,46.82
2023-07-29T04:48:16.107Z,46.81
2023-07-29T04:49:16.105Z,46.78
2023-07-29T04:50:16.099Z,46.78
2023-07-29T04:51:17.029Z,46.79
2023-07-29T04:52:16.132Z,46.78
2023-07-29T04:53:16.034Z,46.80
2023-07-29T04:54:16.003Z,46.79
2023-07-29T04:55:16.013Z,46.76
2023-07-29T04:56:18.410Z,46.74
2023-07-29T04:57:16.954Z,46.75
2023-07-29T04:58:16.037Z,46.75
2023-07-29T04:59:15.978Z,46.76
2023-07-29T05:00:15.960Z,46.73
2023-07-29T05:01:16.001Z,46.73
2023-07-29T05:02:16.886Z,46.76
2023-07-29T05:03:15.891Z,46.76
2023-07-29T05:04:15.927Z,46.78
2023-07-29T05:05:15.860Z,46.76
2023-07-29T05:06:15.867Z,46.77
2023-07-29T05:07:16.843Z,46.79
2023-07-29T05:08:15.839Z,46.79
2023-07-29T05:09:15.867Z,46.81
2023-07-29T05:10:15.796Z,46.83
2023-07-29T05:11:15.780Z,46.83
2023-07-29T05:12:16.709Z,46.85
2023-07-29T05:13:15.822Z,46.83
2023-07-29T05:14:15.790Z,46.78
2023-07-29T05:15:15.769Z,46.76
2023-07-29T05:16:15.802Z,46.72
2023-07-29T05:17:15.741Z,46.67
2023-07-29T05:18:16.637Z,46.61
2023-07-29T05:19:15.707Z,46.57
2023-07-29T05:20:15.746Z,46.52
2023-07-29T05:21:15.695Z,46.45
2023-07-29T05:22:15.658Z,46.37
2023-07-29T05:23:16.565Z,46.27
2023-07-29T05:24:15.663Z,46.19
2023-07-29T05:25:15.632Z,46.12
2023-07-29T05:26:15.680Z,46.06
2023-07-29T05:27:15.687Z,46.02
2023-07-29T05:28:15.620Z,46.03
2023-07-29T05:29:16.521Z,46.04
2023-07-29T05:30:15.621Z,46.08
2023-07-29T05:31:15.697Z,46.10
2023-07-29T05:32:15.578Z,46.10
2023-07-29T05:33:15.598Z,46.11
2023-07-29T05:34:16.653Z,46.10
2023-07-29T05:35:15.488Z,46.13
2023-07-29T05:36:15.471Z,46.18
2023-07-29T05:37:15.472Z,46.22
2023-07-29T05:38:15.470Z,46.25
2023-07-29T05:39:15.468Z,46.29
2023-07-29T05:40:16.385Z,46.30
2023-07-29T05:41:15.554Z,46.31
2023-07-29T05:42:15.385Z,46.30
2023-07-29T05:43:15.425Z,46.30
2023-07-29T05:44:15.404Z,46.30
2023-07-29T05:45:15.386Z,46.28
2023-07-29T05:46:16.288Z,46.25
2023-07-29T05:47:16.800Z,46.21
2023-07-29T05:48:15.549Z,46.14
2023-07-29T05:49:15.312Z,46.09
2023-07-29T05:50:15.313Z,46.07
2023-07-29T05:51:15.307Z,46.07
2023-07-29T05:52:16.220Z,46.08
2023-07-29T05:53:15.236Z,46.09
2023-07-29T05:54:15.242Z,46.08
2023-07-29T05:55:16.020Z,46.07
2023-07-29T05:56:15.242Z,46.06
2023-07-29T05:57:15.242Z,46.05
2023-07-29T05:58:16.132Z,46.04
2023-07-29T05:59:15.235Z,46.03
2023-07-29T06:00:15.228Z,46.00
2023-07-29T06:01:15.250Z,46.02
2023-07-29T06:02:15.136Z,46.04
2023-07-29T06:03:16.137Z,46.03
2023-07-29T06:04:15.123Z,46.05
2023-07-29T06:05:15.097Z,46.05
2023-07-29T06:06:15.120Z,46.07
2023-07-29T06:07:15.135Z,46.06
2023-07-29T06:08:15.991Z,46.05
2023-07-29T06:09:15.050Z,46.05
2023-07-29T06:10:15.042Z,46.05
2023-07-29T06:11:15.083Z,46.04
2023-07-29T06:12:15.109Z,46.04
2023-07-29T06:13:15.989Z,46.03
2023-07-29T06:14:15.004Z,46.02
2023-07-29T06:15:15.004Z,46.02
2023-07-29T06:16:15.063Z,45.99
2023-07-29T06:17:15.046Z,45.95
2023-07-29T06:18:14.934Z,45.92
2023-07-29T06:19:16.130Z,45.89
2023-07-29T06:20:14.954Z,45.86
2023-07-29T06:21:14.911Z,45.85
2023-07-29T06:22:14.854Z,45.81
2023-07-29T06:23:14.856Z,45.78
2023-07-29T06:24:15.837Z,45.75
2023-07-29T06:25:14.903Z,45.75
2023-07-29T06:26:14.941Z,45.75
2023-07-29T06:27:14.805Z,45.74
2023-07-29T06:28:14.888Z,45.75
2023-07-29T06:29:16.472Z,45.71
2023-07-29T06:30:14.783Z,45.71
2023-07-29T06:31:14.850Z,45.72
2023-07-29T06:32:14.745Z,45.71
2023-07-29T06:33:14.750Z,45.68
2023-07-29T06:34:15.710Z,45.66
2023-07-29T06:35:14.755Z,45.62
2023-07-29T06:36:14.695Z,45.61
2023-07-29T06:37:14.774Z,45.57
2023-07-29T06:38:14.728Z,45.53
2023-07-29T06:39:15.650Z,45.50
2023-07-29T06:40:14.659Z,45.43
2023-07-29T06:41:16.444Z,45.41
2023-07-29T06:42:14.627Z,45.37
2023-07-29T06:43:14.666Z,45.33
2023-07-29T06:44:14.587Z,45.27
2023-07-29T06:45:15.525Z,45.20
2023-07-29T06:46:14.612Z,45.13
2023-07-29T06:47:14.603Z,45.05
2023-07-29T06:48:14.573Z,44.99
2023-07-29T06:49:14.549Z,44.92
2023-07-29T06:50:15.510Z,44.90
2023-07-29T06:51:14.540Z,44.84
2023-07-29T06:52:14.496Z,44.77
2023-07-29T06:53:14.504Z,44.70
2023-07-29T06:54:14.467Z,44.61
2023-07-29T06:55:14.498Z,44.49
2023-07-29T06:56:15.420Z,44.31
2023-07-29T06:57:14.428Z,44.25
2023-07-29T06:58:14.435Z,44.27
2023-07-29T06:59:14.428Z,44.33
2023-07-29T07:00:14.476Z,44.29
2023-07-29T07:01:15.370Z,44.24
2023-07-29T07:02:14.453Z,44.13
2023-07-29T07:03:14.415Z,44.00
2023-07-29T07:04:14.360Z,43.86
2023-07-29T07:05:14.367Z,43.77
2023-07-29T07:06:14.350Z,43.76
2023-07-29T07:07:15.309Z,43.80
2023-07-29T07:08:14.295Z,43.87
2023-07-29T07:09:14.297Z,43.82
2023-07-29T07:10:14.293Z,43.75
2023-07-29T07:11:14.276Z,43.69
2023-07-29T07:12:14.262Z,43.67
2023-07-29T07:13:15.195Z,43.71
2023-07-29T07:14:14.196Z,43.75
2023-07-29T07:15:14.271Z,43.76
2023-07-29T07:16:14.236Z,43.75
2023-07-29T07:17:14.170Z,43.66
2023-07-29T07:18:15.091Z,43.57
2023-07-29T07:19:14.160Z,43.66
2023-07-29T07:20:14.222Z,43.78
2023-07-29T07:21:14.138Z,43.86
2023-07-29T07:22:14.122Z,43.94
2023-07-29T07:23:15.103Z,43.98
2023-07-29T07:24:14.109Z,44.10
2023-07-29T07:25:14.086Z,44.14
2023-07-29T07:26:14.125Z,44.01
2023-07-29T07:27:14.052Z,43.81
2023-07-29T07:28:15.251Z,43.60
2023-07-29T07:29:14.047Z,43.47
2023-07-29T07:30:14.023Z,43.45
2023-07-29T07:31:14.093Z,43.35
2023-07-29T07:32:13.967Z,43.35
2023-07-29T07:33:13.973Z,43.39
2023-07-29T07:34:14.930Z,43.36
2023-07-29T07:35:13.954Z,43.24
2023-07-29T07:36:13.970Z,43.16
2023-07-29T07:37:13.933Z,42.97
2023-07-29T07:38:13.925Z,42.93
2023-07-29T07:39:14.836Z,42.84
2023-07-29T07:40:13.897Z,42.85
2023-07-29T07:41:13.886Z,42.92
2023-07-29T07:42:13.851Z,42.91
2023-07-29T07:43:13.845Z,42.88
2023-07-29T07:44:14.737Z,42.77
2023-07-29T07:45:14.767Z,42.83
2023-07-29T07:46:13.894Z,43.01
2023-07-29T07:47:13.783Z,42.97
2023-07-29T07:48:13.761Z,42.86
2023-07-29T07:49:13.768Z,42.68
2023-07-29T07:50:13.744Z,42.62
2023-07-29T07:51:14.706Z,42.70
2023-07-29T07:52:13.737Z,42.67
2023-07-29T07:53:13.723Z,42.54
2023-07-29T07:54:13.798Z,42.01
2023-07-29T07:55:13.676Z,41.92
2023-07-29T07:56:13.766Z,41.88
2023-07-29T07:57:14.633Z,41.68
2023-07-29T07:58:13.673Z,41.69
2023-07-29T07:59:16.066Z,41.58
2023-07-29T08:00:13.627Z,41.33
2023-07-29T08:01:13.610Z,41.19
2023-07-29T08:02:13.701Z,41.29
2023-07-29T08:03:14.709Z,41.48
2023-07-29T08:04:13.560Z,41.38
2023-07-29T08:05:13.581Z,41.19
2023-07-29T08:06:13.539Z,41.04
2023-07-29T08:07:13.528Z,40.86
2023-07-29T08:08:14.497Z,40.74
2023-07-29T08:09:13.563Z,40.52
2023-07-29T08:10:13.556Z,40.73
2023-07-29T08:11:13.551Z,41.03
2023-07-29T08:12:13.555Z,41.27
2023-07-29T08:13:13.465Z,41.20
2023-07-29T08:14:19.678Z,41.35
2023-07-29T08:15:13.438Z,41.48
2023-07-29T08:16:13.465Z,41.72
2023-07-29T08:17:13.454Z,41.98
2023-07-29T08:18:13.386Z,42.19
2023-07-29T08:19:22.461Z,42.20
2023-07-29T08:20:13.359Z,42.05
2023-07-29T08:21:13.417Z,42.07
2023-07-29T08:22:13.329Z,42.22
2023-07-29T08:23:13.339Z,42.31
2023-07-29T08:24:14.460Z,42.31
2023-07-29T08:25:13.294Z,42.24
2023-07-29T08:26:13.299Z,42.07
2023-07-29T08:27:13.275Z,42.10
2023-07-29T08:28:13.306Z,42.09
2023-07-29T08:29:14.199Z,42.12
2023-07-29T08:30:13.225Z,42.32
2023-07-29T08:31:13.263Z,42.54
2023-07-29T08:32:13.243Z,42.74
2023-07-29T08:33:13.273Z,42.88
2023-07-29T08:34:13.230Z,42.98
2023-07-29T08:35:14.205Z,43.01
2023-07-29T08:36:13.158Z,43.22
2023-07-29T08:37:13.155Z,43.30
2023-07-29T08:38:13.153Z,43.18
2023-07-29T08:39:13.189Z,42.96
2023-07-29T08:40:14.120Z,42.94
2023-07-29T08:41:13.083Z,43.08
2023-07-29T08:42:13.140Z,43.21
2023-07-29T08:43:13.065Z,43.34
2023-07-29T08:44:13.467Z,43.42
2023-07-29T08:45:13.081Z,43.58
2023-07-29T08:46:19.270Z,43.81
2023-07-29T08:47:13.096Z,44.10
2023-07-29T08:48:12.987Z,44.30
2023-07-29T08:49:13.000Z,44.36
2023-07-29T08:50:15.315Z,44.41
2023-07-29T08:51:12.977Z,44.45
2023-07-29T08:52:13.923Z,44.46
2023-07-29T08:53:12.946Z,44.44
2023-07-29T08:54:12.938Z,44.39
2023-07-29T08:55:12.885Z,44.29
2023-07-29T08:56:12.988Z,44.09
2023-07-29T08:57:13.862Z,43.79
2023-07-29T08:58:12.929Z,43.52
2023-07-29T08:59:12.963Z,43.37
2023-07-29T09:00:12.881Z,43.27
2023-07-29T09:01:12.849Z,43.24
2023-07-29T09:02:13.909Z,43.26
2023-07-29T09:03:12.922Z,43.19
2023-07-29T09:04:12.815Z,43.01
2023-07-29T09:05:12.799Z,42.90
2023-07-29T09:06:12.765Z,42.84
2023-07-29T09:07:13.748Z,42.75
2023-07-29T09:08:12.806Z,42.69
2023-07-29T09:09:12.725Z,42.62
2023-07-29T09:10:12.756Z,42.56
2023-07-29T09:11:12.697Z,42.53
2023-07-29T09:12:12.685Z,42.50
2023-07-29T09:13:13.705Z,42.48
2023-07-29T09:14:12.678Z,42.57
2023-07-29T09:15:12.664Z,42.73
2023-07-29T09:16:12.666Z,42.85
2023-07-29T09:17:12.757Z,42.95
2023-07-29T09:18:13.671Z,43.18
2023-07-29T09:19:12.592Z,43.47
2023-07-29T09:20:12.614Z,43.64
2023-07-29T09:21:12.597Z,43.70
2023-07-29T09:22:12.571Z,43.47
2023-07-29T09:23:18.809Z,42.95
2023-07-29T09:24:12.530Z,42.41
2023-07-29T09:25:12.553Z,42.01
2023-07-29T09:26:12.635Z,41.78
2023-07-29T09:27:12.510Z,41.50
2023-07-29T09:28:12.553Z,41.35
2023-07-29T09:29:13.522Z,41.15
2023-07-29T09:30:12.445Z,40.65
2023-07-29T09:31:12.533Z,40.51
2023-07-29T09:32:12.492Z,40.57
2023-07-29T09:33:12.542Z,40.77
2023-07-29T09:34:18.665Z,40.95
2023-07-29T09:35:12.461Z,41.06
2023-07-29T09:36:12.423Z,41.05
2023-07-29T09:37:12.374Z,41.14
2023-07-29T09:38:12.400Z,41.50
2023-07-29T09:39:12.373Z,41.98
2023-07-29T09:40:13.292Z,42.32
2023-07-29T09:41:12.304Z,42.52
2023-07-29T09:42:12.335Z,42.63
2023-07-29T09:43:12.300Z,42.60
2023-07-29T09:44:12.333Z,42.54
2023-07-29T09:45:13.252Z,42.60
2023-07-29T09:46:12.302Z,42.63
2023-07-29T09:47:12.267Z,42.61
2023-07-29T09:48:13.203Z,42.58
2023-07-29T09:49:12.224Z,42.61
2023-07-29T09:50:12.239Z,42.64
2023-07-29T09:51:13.189Z,42.50
2023-07-29T09:52:12.160Z,42.29
2023-07-29T09:53:12.143Z,42.11
2023-07-29T09:54:12.152Z,42.03
2023-07-29T09:55:12.194Z,41.97
2023-07-29T09:56:13.117Z,41.87
2023-07-29T09:57:12.211Z,41.78
2023-07-29T09:58:12.179Z,41.79
2023-07-29T09:59:12.173Z,41.71
2023-07-29T10:00:12.091Z,41.60
2023-07-29T10:01:12.118Z,41.55
2023-07-29T10:02:18.463Z,41.48
2023-07-29T10:03:12.181Z,41.39
2023-07-29T10:04:13.795Z,41.42
2023-07-29T10:05:11.998Z,41.52
2023-07-29T10:06:12.016Z,41.66
2023-07-29T10:07:12.035Z,41.83
2023-07-29T10:08:18.258Z,41.94
2023-07-29T10:09:11.960Z,42.00
2023-07-29T10:10:12.013Z,41.89
2023-07-29T10:11:11.953Z,41.55
2023-07-29T10:12:11.949Z,41.28
2023-07-29T10:13:12.905Z,41.23
2023-07-29T10:14:11.891Z,41.36
2023-07-29T10:15:11.888Z,41.59
2023-07-29T10:16:11.947Z,41.83
2023-07-29T10:17:11.859Z,42.01
2023-07-29T10:18:13.015Z,42.22
2023-07-29T10:19:11.913Z,42.48
2023-07-29T10:20:11.841Z,42.74
2023-07-29T10:21:11.813Z,42.94
2023-07-29T10:22:11.800Z,43.10
2023-07-29T10:23:12.810Z,43.30
2023-07-29T10:24:11.785Z,43.47
2023-07-29T10:25:11.759Z,43.54
2023-07-29T10:26:11.785Z,43.37
2023-07-29T10:27:12.767Z,43.02
2023-07-29T10:28:11.744Z,42.59
2023-07-29T10:29:12.748Z,42.17
2023-07-29T10:30:11.739Z,41.73
2023-07-29T10:31:11.681Z,41.45
2023-07-29T10:32:11.661Z,41.25
2023-07-29T10:33:11.867Z,41.10
2023-07-29T10:34:12.714Z,40.99
2023-07-29T10:35:11.699Z,40.98
2023-07-29T10:36:11.676Z,41.05
2023-07-29T10:37:11.609Z,41.20
2023-07-29T10:38:11.636Z,41.47
2023-07-29T10:39:11.606Z,41.85
2023-07-29T10:40:12.617Z,42.26
2023-07-29T10:41:11.571Z,42.59
2023-07-29T10:42:11.591Z,42.76
2023-07-29T10:43:11.642Z,42.90
2023-07-29T10:44:11.546Z,42.93
2023-07-29T10:45:17.819Z,42.95
2023-07-29T10:46:16.326Z,43.03
2023-07-29T10:47:13.093Z,43.15
2023-07-29T10:48:11.540Z,43.36
2023-07-29T10:49:11.505Z,43.58
2023-07-29T10:50:11.529Z,43.64
2023-07-29T10:51:12.466Z,43.61
2023-07-29T10:52:11.445Z,43.60
2023-07-29T10:53:11.464Z,43.64
2023-07-29T10:54:11.457Z,43.79
2023-07-29T10:55:11.436Z,44.03
2023-07-29T10:56:12.094Z,44.26
2023-07-29T10:57:17.656Z,44.49
2023-07-29T10:58:11.419Z,44.75
2023-07-29T10:59:11.362Z,45.02
2023-07-29T11:00:11.337Z,45.28
2023-07-29T11:01:11.366Z,45.49
2023-07-29T11:02:17.574Z,45.67
2023-07-29T11:03:11.413Z,45.83
2023-07-29T11:04:11.358Z,46.03
2023-07-29T11:05:11.328Z,46.21
2023-07-29T11:06:12.214Z,46.38
2023-07-29T11:07:12.229Z,46.49
2023-07-29T11:08:11.348Z,46.65
2023-07-29T11:09:11.255Z,46.84
2023-07-29T11:10:11.242Z,46.91
2023-07-29T11:13:46.353Z,46.54
2023-07-29T11:14:07.548Z,47.68
2023-07-29T11:15:07.506Z,48.07
2023-07-29T11:16:07.855Z,48.38
2023-07-29T11:17:08.747Z,48.61
2023-07-29T11:18:13.767Z,48.78
2023-07-29T11:19:07.473Z,48.87
2023-07-29T11:20:07.561Z,48.90
2023-07-29T11:21:07.403Z,48.89
2023-07-29T11:22:07.404Z,48.83
2023-07-29T11:23:08.436Z,48.78
2023-07-29T11:24:07.417Z,48.77
2023-07-29T11:25:07.377Z,48.71
2023-07-29T11:26:07.546Z,48.63
2023-07-29T11:27:07.376Z,48.56
2023-07-29T11:28:13.795Z,48.44
2023-07-29T11:29:07.313Z,48.39
2023-07-29T11:30:07.305Z,48.39
2023-07-29T11:31:07.720Z,48.32
2023-07-29T11:32:07.273Z,48.25
2023-07-29T11:33:08.378Z,48.24
2023-07-29T11:34:07.249Z,48.17
2023-07-29T11:35:07.249Z,48.08
2023-07-29T11:36:07.373Z,48.03
2023-07-29T11:37:07.225Z,47.79
2023-07-29T11:38:13.460Z,47.47
2023-07-29T11:39:07.353Z,47.33
2023-07-29T11:40:07.164Z,47.26
2023-07-29T11:41:07.133Z,47.13
2023-07-29T11:42:07.165Z,46.97
2023-07-29T11:43:13.390Z,46.86
2023-07-29T11:44:07.104Z,46.80
2023-07-29T11:45:07.150Z,46.71
2023-07-29T11:46:07.219Z,46.66
2023-07-29T11:47:07.086Z,46.75
2023-07-29T11:48:08.056Z,46.90
2023-07-29T11:49:07.200Z,47.02
2023-07-29T11:50:07.040Z,47.11
2023-07-29T11:51:07.042Z,47.15
2023-07-29T11:52:07.058Z,47.23
2023-07-29T11:53:07.955Z,47.29
2023-07-29T11:54:07.033Z,47.32
2023-07-29T11:55:06.975Z,47.24
2023-07-29T11:56:06.932Z,47.06
2023-07-29T11:57:07.016Z,46.83
2023-07-29T11:58:13.231Z,46.61
2023-07-29T11:59:06.899Z,46.42
2023-07-29T12:00:06.905Z,46.23
2023-07-29T12:01:06.937Z,46.02
2023-07-29T12:02:06.875Z,45.80
2023-07-29T12:03:07.042Z,45.62
2023-07-29T12:04:13.157Z,45.46
2023-07-29T12:05:06.843Z,45.33
2023-07-29T12:06:07.034Z,45.29
2023-07-29T12:07:06.826Z,45.32
2023-07-29T12:08:06.805Z,45.44
2023-07-29T12:09:07.045Z,45.54
2023-07-29T12:10:13.134Z,45.58
2023-07-29T12:11:06.790Z,45.59
2023-07-29T12:12:06.794Z,45.62
2023-07-29T12:13:06.837Z,45.65
2023-07-29T12:14:06.748Z,45.66
2023-07-29T12:15:07.722Z,45.66
2023-07-29T12:16:06.947Z,45.67
2023-07-29T12:17:06.747Z,45.67
2023-07-29T12:18:06.787Z,45.68
2023-07-29T12:19:06.870Z,45.66
2023-07-29T12:20:12.944Z,45.59
2023-07-29T12:21:06.678Z,45.49
2023-07-29T12:22:06.667Z,45.40
2023-07-29T12:23:06.591Z,45.35
2023-07-29T12:24:06.613Z,45.32
2023-07-29T12:25:06.658Z,45.30
2023-07-29T12:26:12.813Z,45.27
2023-07-29T12:27:06.560Z,45.26
2023-07-29T12:28:06.625Z,45.26
2023-07-29T12:29:08.473Z,45.25
2023-07-29T12:30:06.640Z,45.23
2023-07-29T12:31:06.568Z,45.14
2023-07-29T12:32:07.461Z,44.96
2023-07-29T12:33:06.574Z,44.76
2023-07-29T12:34:06.472Z,44.57
2023-07-29T12:35:06.453Z,44.32
2023-07-29T12:36:06.457Z,43.97
2023-07-29T12:37:06.466Z,43.41
2023-07-29T12:38:12.814Z,42.93
2023-07-29T12:39:06.415Z,42.27
2023-07-29T12:40:06.413Z,41.64
2023-07-29T12:41:06.426Z,41.11
2023-07-29T12:42:06.399Z,40.41
2023-07-29T12:43:12.639Z,39.51
2023-07-29T12:44:06.359Z,38.65
2023-07-29T12:45:06.388Z,37.63
2023-07-29T12:46:06.455Z,36.82
2023-07-29T12:47:06.348Z,35.52
2023-07-29T12:48:06.327Z,33.62
2023-07-29T12:49:07.258Z,32.21
2023-07-29T12:50:06.289Z,31.54
2023-07-29T12:51:06.325Z,32.05
2023-07-29T12:52:06.232Z,32.60
2023-07-29T12:53:06.263Z,33.42
2023-07-29T12:54:12.451Z,34.01
2023-07-29T12:55:06.215Z,34.67
2023-07-29T12:56:06.184Z,35.28
2023-07-29T12:57:06.192Z,35.37